Flight Track Log - Related Links

Times and Time Zones

All times are in EDT time to prevent confusion due to time zone crossing. See the CES2889 flight status page for this flight to view local times or setup timezone preferences in your user account.

Time Position Orientation Groundspeed Altitude Reporting Facility
EDT Latitude Longitude Course Direction KTS MPH feet Rate Location/Type
Wed 05:08:00 AM 27.3229 113.6380 233° Southwest  Level Estimated
Wed 05:09:00 AM 27.2579 113.5452 232° Southwest  Level Estimated
Wed 05:10:00 AM 27.1928 113.4524 232° Southwest  Level Estimated
Wed 05:11:00 AM 27.1276 113.3598 232° Southwest  Level Estimated
Wed 05:12:00 AM 27.0624 113.2673 232° Southwest  Level Estimated
Wed 05:13:00 AM 26.9971 113.1748 232° Southwest  Level Estimated
Wed 05:14:00 AM 26.9317 113.0825 232° Southwest  Level Estimated
Wed 05:15:00 AM 26.8663 112.9903 232° Southwest  Level Estimated
Wed 05:16:00 AM 26.8009 112.8982 231° Southwest  Level Estimated
Wed 05:17:00 AM 26.7353 112.8062 231° Southwest  Level Estimated
Wed 05:18:00 AM 26.6698 112.7143 231° Southwest  Level Estimated
Wed 05:19:00 AM 26.6041 112.6225 231° Southwest  Level Estimated
Wed 05:20:00 AM 26.5384 112.5309 231° Southwest  Level Estimated
Wed 05:21:00 AM 26.4726 112.4393 231° Southwest  Level Estimated
Wed 05:22:00 AM 26.4068 112.3478 231° Southwest  Level Estimated
Wed 05:23:00 AM 26.3409 112.2565 231° Southwest  Level Estimated
Wed 05:24:00 AM 26.2750 112.1652 231° Southwest  Level Estimated
Wed 05:25:00 AM 26.2090 112.0740 231° Southwest  Level Estimated
Wed 05:26:00 AM 26.1430 111.9830 231° Southwest  Level Estimated
Wed 05:27:00 AM 26.0769 111.8920 231° Southwest  Level Estimated
Wed 05:28:00 AM 26.0107 111.8012 231° Southwest  Level Estimated
Wed 05:29:00 AM 25.9445 111.7104 231° Southwest  Level Estimated
Wed 05:30:00 AM 25.8782 111.6198 231° Southwest  Level Estimated
Wed 05:31:00 AM 25.8118 111.5293 231° Southwest  Level Estimated
Wed 05:32:00 AM 25.7454 111.4388 231° Southwest  Level Estimated
Wed 05:33:00 AM 25.6790 111.3485 231° Southwest  Level Estimated
Wed 05:34:00 AM 25.6125 111.2582 231° Southwest  Level Estimated
Wed 05:35:00 AM 25.5459 111.1681 231° Southwest  Level Estimated
Wed 05:36:00 AM 25.4793 111.0781 231° Southwest  Level Estimated
Wed 05:37:00 AM 25.4127 110.9881 231° Southwest  Level Estimated
Wed 05:38:00 AM 25.3459 110.8983 231° Southwest  Level Estimated
Wed 05:39:00 AM 25.2792 110.8085 231° Southwest  Level Estimated
Wed 05:40:00 AM 25.2123 110.7189 231° Southwest  Level Estimated
Wed 05:41:00 AM 25.1454 110.6294 230° Southwest  Level Estimated
Wed 05:42:00 AM 25.0785 110.5399 230° Southwest  Level Estimated
Wed 05:43:00 AM 25.0115 110.4506 230° Southwest  Level Estimated
Wed 05:44:00 AM 24.9445 110.3613 230° Southwest  Level Estimated
Wed 05:45:00 AM 24.8774 110.2722 230° Southwest  Level Estimated
Wed 05:46:00 AM 24.8102 110.1831 230° Southwest  Level Estimated
Wed 05:47:00 AM 24.7430 110.0941 230° Southwest  Level Estimated
Wed 05:48:00 AM 24.6758 110.0053 230° Southwest  Level Estimated
Wed 05:49:00 AM 24.6084 109.9165 230° Southwest  Level Estimated
Wed 05:50:00 AM 24.5411 109.8278 230° Southwest  Level Estimated
Wed 05:51:00 AM 24.4737 109.7393 230° Southwest  Level Estimated
Wed 05:52:00 AM 24.4062 109.6508 230° Southwest  Level Estimated
Wed 05:53:00 AM 24.3387 109.5624 230° Southwest  Level Estimated
Wed 05:54:00 AM 24.2711 109.4741 230° Southwest  Level Estimated
Wed 05:55:00 AM 24.2075 109.3911 230° Southwest  Level Estimated
Wed 05:56:00 AM 24.2075 109.3911 90° East  Level Estimated
Wed 05:57:00 AM 24.2075 109.3911 90° East  Level Estimated
Wed 05:58:00 AM 24.2075 109.3911 90° East  Level Estimated
Wed 05:59:00 AM 24.2075 109.3911 90° East  Level Estimated
Wed 06:00:00 AM 24.2075 109.3911 90° East  Level Estimated
Wed 06:01:00 AM 24.2075 109.3911 90° East  Level Estimated
Wed 06:02:00 AM 24.2075 109.3911 90° East  Level Estimated
Wed 06:03:00 AM 24.2075 109.3911 90° East  Level Estimated
Wed 06:04:00 AM 24.2075 109.3911 90° East  Level Estimated
Wed 06:05:00 AM 24.2075 109.3911 90° East  Level Estimated
Wed 06:06:00 AM 24.2075 109.3911 90° East  Level Estimated
Wed 06:07:00 AM 24.2075 109.3911 90° East  Level Estimated
Wed 06:08:00 AM 24.2075 109.3911 90° East  Level Estimated
Wed 06:09:00 AM 24.2075 109.3911 90° East  Level Estimated
Wed 06:10:00 AM 24.2075 109.3911 90° East  Level Estimated
Wed 06:11:00 AM 24.2075 109.3911 90° East  Level Estimated

Login

Don't have an account? Register now (free) for customized features, flight alerts, and more!